Celik 1 — 9HKY9 — position and weather

sailwx.info

Track history (hours):
 
Tides and Currents Weather Stations Pressure Air Temp Water Temp Dewpoint Dewpoint Depression Visibility Wind Speed Wind Dir Waves Ship Positions

Celik 1

Last reported at 2017-Mar-14 13:32 UTC. Time now 2017-Mar-24 04:18 UTC.
Position N 37°50' E 016°00'.
Warning: this ship's position is 9 days out of date.

Length 121 m; draft 6.7 m.

Type: Cargo ship. MMSI: 249114000.

Date/timePositionNaut miles runAvg speedWind from/ knotsBaromVisibWave heightAir tempDewpointWater temp
2017-Mar-14 13:32N 37°50' E 016°00'10 9.8
2017-Mar-14 12:33N 37°50' E 015°48'10 9.6
2017-Mar-14 11:33N 37°54' E 015°37'9 9.4
2017-Mar-14 10:33N 38°03' E 015°35'1010.4
2017-Mar-14 09:33N 38°13' E 015°36'7 7.0
2017-Mar-14 08:33N 38°20' E 015°35'1010.1
2017-Mar-14 07:33N 38°20' E 015°22'1110.9
2017-Mar-14 06:33N 38°18' E 015°08'1110.8
2017-Mar-14 05:33N 38°17' E 014°55'1110.5
2017-Mar-14 04:33N 38°17' E 014°41'10 9.9
2017-Mar-14 03:33N 38°18' E 014°29'2510.3
2017-Mar-14 01:05N 38°19' E 013°56'610.4
2017-Mar-14 00:32N 38°19' E 013°49'1010.5
2017-Mar-13 23:33N 38°19' E 013°36'1010.3
2017-Mar-13 22:33N 38°20' E 013°23'10 9.7
2017-Mar-13 21:33N 38°20' E 013°11'9 9.5
2017-Mar-13 20:33N 38°21' E 012°58'10 9.8
2017-Mar-13 19:33N 38°20' E 012°46'10 9.9
2017-Mar-13 18:31N 38°19' E 012°33'21 9.9
2017-Mar-13 16:25N 38°11' E 012°09'33510.4
2017-Mar-12 08:14N 37°19' E 005°10'1911.1
2017-Mar-12 06:32N 37°17' E 004°46'1410.7
2017-Mar-12 05:11N 37°15' E 004°29'710.7
2017-Mar-12 04:33N 37°13' E 004°20'7610.2
2017-Mar-11 21:09N 37°03' E 002°46'7 9.9
2017-Mar-11 20:28N 37°02' E 002°38'2510.8
2017-Mar-11 18:12N 36°58' E 002°07'710.6
2017-Mar-11 17:29N 36°57' E 001°58'1111.0
2017-Mar-11 16:31N 36°55' E 001°45'1110.9
2017-Mar-11 15:33N 36°53' E 001°32'1111.1
2017-Mar-11 14:33N 36°51' E 001°18'1110.6
2017-Mar-11 13:33N 36°49' E 001°05'1010.2
2017-Mar-11 12:33N 36°48' E 000°53'1110.5
2017-Mar-11 11:31N 36°46' E 000°39'1010.7
2017-Mar-11 10:33N 36°44' E 000°27'1110.9
2017-Mar-11 09:33N 36°42' E 000°13'2110.6
2017-Mar-11 07:33N 36°38' W 000°12'1110.4
2017-Mar-11 06:32N 36°36' W 000°26'1010.6
2017-Mar-11 05:33N 36°34' W 000°38'1110.8
2017-Mar-11 04:32N 36°33' W 000°52'17210.6
2017-Mar-10 12:13N 36°05' W 004°23'2211.6
2017-Mar-10 10:19N 36°03' W 004°50'1011.2
2017-Mar-10 09:28N 36°01' W 005°02'1111.5
2017-Mar-10 08:33N 35°60' W 005°14'1212.2
2017-Mar-10 07:33N 35°57' W 005°29'1110.6
2017-Mar-10 06:33N 35°56' W 005°42'11 9.8
2017-Mar-10 05:29N 35°55' W 005°55'  
Track history (hours):
 
Tides and Currents Weather Stations Pressure Air Temp Water Temp Dewpoint Dewpoint Depression Visibility Wind Speed Wind Dir Waves Ship Positions

Celik 1

Last reported at 2017-Mar-14 13:32 UTC. Time now 2017-Mar-24 04:18 UTC.
Position N 37°50' E 016°00'.
Warning: this ship's position is 9 days out of date.

Length 121 m; draft 6.7 m.

Type: Cargo ship. MMSI: 249114000.

Date/timePositionNaut miles runAvg speedWind from/ knotsBaromVisibWave heightAir tempDewpointWater temp
2017-Mar-14 13:32N 37°50' E 016°00'10 9.8
2017-Mar-14 12:33N 37°50' E 015°48'10 9.6
2017-Mar-14 11:33N 37°54' E 015°37'9 9.4
2017-Mar-14 10:33N 38°03' E 015°35'1010.4
2017-Mar-14 09:33N 38°13' E 015°36'7 7.0
2017-Mar-14 08:33N 38°20' E 015°35'1010.1
2017-Mar-14 07:33N 38°20' E 015°22'1110.9
2017-Mar-14 06:33N 38°18' E 015°08'1110.8
2017-Mar-14 05:33N 38°17' E 014°55'1110.5
2017-Mar-14 04:33N 38°17' E 014°41'10 9.9
2017-Mar-14 03:33N 38°18' E 014°29'2510.3
2017-Mar-14 01:05N 38°19' E 013°56'610.4
2017-Mar-14 00:32N 38°19' E 013°49'1010.5
2017-Mar-13 23:33N 38°19' E 013°36'1010.3
2017-Mar-13 22:33N 38°20' E 013°23'10 9.7
2017-Mar-13 21:33N 38°20' E 013°11'9 9.5
2017-Mar-13 20:33N 38°21' E 012°58'10 9.8
2017-Mar-13 19:33N 38°20' E 012°46'10 9.9
2017-Mar-13 18:31N 38°19' E 012°33'21 9.9
2017-Mar-13 16:25N 38°11' E 012°09'33510.4
2017-Mar-12 08:14N 37°19' E 005°10'1911.1
2017-Mar-12 06:32N 37°17' E 004°46'1410.7
2017-Mar-12 05:11N 37°15' E 004°29'710.7
2017-Mar-12 04:33N 37°13' E 004°20'7610.2
2017-Mar-11 21:09N 37°03' E 002°46'7 9.9
2017-Mar-11 20:28N 37°02' E 002°38'2510.8
2017-Mar-11 18:12N 36°58' E 002°07'710.6
2017-Mar-11 17:29N 36°57' E 001°58'1111.0
2017-Mar-11 16:31N 36°55' E 001°45'1110.9
2017-Mar-11 15:33N 36°53' E 001°32'1111.1
2017-Mar-11 14:33N 36°51' E 001°18'1110.6
2017-Mar-11 13:33N 36°49' E 001°05'1010.2
2017-Mar-11 12:33N 36°48' E 000°53'1110.5
2017-Mar-11 11:31N 36°46' E 000°39'1010.7
2017-Mar-11 10:33N 36°44' E 000°27'1110.9
2017-Mar-11 09:33N 36°42' E 000°13'2110.6
2017-Mar-11 07:33N 36°38' W 000°12'1110.4
2017-Mar-11 06:32N 36°36' W 000°26'1010.6
2017-Mar-11 05:33N 36°34' W 000°38'1110.8
2017-Mar-11 04:32N 36°33' W 000°52'17210.6
2017-Mar-10 12:13N 36°05' W 004°23'2211.6
2017-Mar-10 10:19N 36°03' W 004°50'1011.2
2017-Mar-10 09:28N 36°01' W 005°02'1111.5
2017-Mar-10 08:33N 35°60' W 005°14'1212.2
2017-Mar-10 07:33N 35°57' W 005°29'1110.6
2017-Mar-10 06:33N 35°56' W 005°42'11 9.8
2017-Mar-10 05:29N 35°55' W 005°55'  

Dump ship's entire track history